sensor_id;sensor_type;location;lat;lon;timestamp;pressure;altitude;pressure_sealevel;temperature;humidity
77881;BME280;67077;50.298;18.996;2023-03-05T00:02:21;97631.48;;;0.30;72.79
77881;BME280;67077;50.298;18.996;2023-03-05T00:04:48;97631.29;;;0.27;72.97
77881;BME280;67077;50.298;18.996;2023-03-05T00:07:16;97631.86;;;0.25;73.25
77881;BME280;67077;50.298;18.996;2023-03-05T00:09:43;97628.30;;;0.24;73.32
77881;BME280;67077;50.298;18.996;2023-03-05T00:12:10;97632.89;;;0.21;73.40
77881;BME280;67077;50.298;18.996;2023-03-05T00:14:38;97632.46;;;0.20;73.11
77881;BME280;67077;50.298;18.996;2023-03-05T00:17:05;97628.05;;;0.23;73.27
77881;BME280;67077;50.298;18.996;2023-03-05T00:19:34;97628.09;;;0.28;73.31
77881;BME280;67077;50.298;18.996;2023-03-05T00:22:02;97623.67;;;0.30;73.34
77881;BME280;67077;50.298;18.996;2023-03-05T00:24:30;97622.35;;;0.29;73.18
77881;BME280;67077;50.298;18.996;2023-03-05T00:26:58;97617.10;;;0.27;73.40
77881;BME280;67077;50.298;18.996;2023-03-05T00:29:25;97613.45;;;0.23;73.52
77881;BME280;67077;50.298;18.996;2023-03-05T00:31:54;97607.41;;;0.20;73.72
77881;BME280;67077;50.298;18.996;2023-03-05T00:34:22;97608.02;;;0.18;73.72
77881;BME280;67077;50.298;18.996;2023-03-05T00:36:51;97606.42;;;0.19;73.97
77881;BME280;67077;50.298;18.996;2023-03-05T00:39:20;97606.45;;;0.19;73.80
77881;BME280;67077;50.298;18.996;2023-03-05T00:41:49;97611.52;;;0.12;72.85
77881;BME280;67077;50.298;18.996;2023-03-05T00:44:22;97610.73;;;0.03;72.56
77881;BME280;67077;50.298;18.996;2023-03-05T00:46:51;97606.71;;;-0.07;71.87
77881;BME280;67077;50.298;18.996;2023-03-05T00:49:18;97601.30;;;-0.14;71.08
77881;BME280;67077;50.298;18.996;2023-03-05T00:51:46;97599.72;;;-0.20;70.44
77881;BME280;67077;50.298;18.996;2023-03-05T00:54:15;97598.69;;;-0.26;69.98
77881;BME280;67077;50.298;18.996;2023-03-05T00:56:43;97598.33;;;-0.32;69.57
77881;BME280;67077;50.298;18.996;2023-03-05T00:59:10;97592.82;;;-0.34;69.80
77881;BME280;67077;50.298;18.996;2023-03-05T01:01:39;97593.11;;;-0.30;69.18
77881;BME280;67077;50.298;18.996;2023-03-05T01:04:06;97590.00;;;-0.25;68.60
77881;BME280;67077;50.298;18.996;2023-03-05T01:06:34;97588.47;;;-0.26;67.78
77881;BME280;67077;50.298;18.996;2023-03-05T01:09:01;97585.38;;;-0.30;66.95
77881;BME280;67077;50.298;18.996;2023-03-05T01:11:28;97581.69;;;-0.36;66.82
77881;BME280;67077;50.298;18.996;2023-03-05T01:13:56;97577.12;;;-0.39;66.37
77881;BME280;67077;50.298;18.996;2023-03-05T01:16:23;97576.29;;;-0.43;66.11
77881;BME280;67077;50.298;18.996;2023-03-05T01:18:54;97576.08;;;-0.46;66.60
77881;BME280;67077;50.298;18.996;2023-03-05T01:21:21;97570.22;;;-0.49;66.27
77881;BME280;67077;50.298;18.996;2023-03-05T01:23:48;97567.33;;;-0.52;66.27
77881;BME280;67077;50.298;18.996;2023-03-05T01:26:15;97567.13;;;-0.53;66.31
77881;BME280;67077;50.298;18.996;2023-03-05T01:28:42;97567.95;;;-0.54;66.34
77881;BME280;67077;50.298;18.996;2023-03-05T01:31:10;97567.66;;;-0.57;66.26
77881;BME280;67077;50.298;18.996;2023-03-05T01:33:38;97568.32;;;-0.59;66.22
77881;BME280;67077;50.298;18.996;2023-03-05T01:36:09;97564.23;;;-0.57;66.14
77881;BME280;67077;50.298;18.996;2023-03-05T01:38:41;97562.41;;;-0.52;66.11
77881;BME280;67077;50.298;18.996;2023-03-05T01:41:09;97565.70;;;-0.50;66.21
77881;BME280;67077;50.298;18.996;2023-03-05T01:43:40;97562.86;;;-0.49;66.09
77881;BME280;67077;50.298;18.996;2023-03-05T01:48:55;97563.02;;;-0.53;66.11
77881;BME280;67077;50.298;18.996;2023-03-05T01:51:29;97567.16;;;-0.53;66.23
77881;BME280;67077;50.298;18.996;2023-03-05T01:53:59;97563.86;;;-0.54;66.24
77881;BME280;67077;50.298;18.996;2023-03-05T01:56:28;97563.60;;;-0.55;66.40
77881;BME280;67077;50.298;18.996;2023-03-05T01:58:58;97564.07;;;-0.54;66.28
77881;BME280;67077;50.298;18.996;2023-03-05T02:01:32;97563.28;;;-0.53;66.32
77881;BME280;67077;50.298;18.996;2023-03-05T02:04:04;97556.21;;;-0.53;66.30
77881;BME280;67077;50.298;18.996;2023-03-05T02:06:32;97560.85;;;-0.56;66.76
77881;BME280;67077;50.298;18.996;2023-03-05T02:09:00;97560.42;;;-0.56;66.64
77881;BME280;67077;50.298;18.996;2023-03-05T02:11:28;97556.38;;;-0.57;66.87
77881;BME280;67077;50.298;18.996;2023-03-05T02:13:55;97556.17;;;-0.58;67.23
77881;BME280;67077;50.298;18.996;2023-03-05T02:16:22;97547.65;;;-0.58;67.80
77881;BME280;67077;50.298;18.996;2023-03-05T02:18:49;97546.36;;;-0.52;68.24
77881;BME280;67077;50.298;18.996;2023-03-05T02:21:26;97539.99;;;-0.46;68.57
77881;BME280;67077;50.298;18.996;2023-03-05T02:23:54;97538.09;;;-0.45;68.74
77881;BME280;67077;50.298;18.996;2023-03-05T02:26:20;97538.02;;;-0.43;68.91
77881;BME280;67077;50.298;18.996;2023-03-05T02:28:53;97533.58;;;-0.42;69.02
77881;BME280;67077;50.298;18.996;2023-03-05T02:31:24;97533.27;;;-0.46;68.72
77881;BME280;67077;50.298;18.996;2023-03-05T02:33:53;97533.25;;;-0.49;68.56
77881;BME280;67077;50.298;18.996;2023-03-05T02:36:22;97530.52;;;-0.50;68.72
77881;BME280;67077;50.298;18.996;2023-03-05T02:38:49;97531.60;;;-0.53;68.89
77881;BME280;67077;50.298;18.996;2023-03-05T02:41:21;97536.09;;;-0.56;69.08
77881;BME280;67077;50.298;18.996;2023-03-05T02:43:49;97534.97;;;-0.55;69.12
77881;BME280;67077;50.298;18.996;2023-03-05T02:46:16;97534.35;;;-0.54;69.38
77881;BME280;67077;50.298;18.996;2023-03-05T02:48:45;97540.85;;;-0.55;69.47
77881;BME280;67077;50.298;18.996;2023-03-05T02:51:13;97534.77;;;-0.57;69.61
77881;BME280;67077;50.298;18.996;2023-03-05T02:53:40;97532.55;;;-0.56;69.65
77881;BME280;67077;50.298;18.996;2023-03-05T02:56:07;97530.83;;;-0.53;69.66
77881;BME280;67077;50.298;18.996;2023-03-05T02:58:35;97533.79;;;-0.48;69.18
77881;BME280;67077;50.298;18.996;2023-03-05T03:01:02;97540.31;;;-0.43;68.86
77881;BME280;67077;50.298;18.996;2023-03-05T03:03:29;97531.42;;;-0.39;68.97
77881;BME280;67077;50.298;18.996;2023-03-05T03:05:56;97526.17;;;-0.38;68.98
77881;BME280;67077;50.298;18.996;2023-03-05T03:08:24;97523.75;;;-0.40;69.17
77881;BME280;67077;50.298;18.996;2023-03-05T03:10:51;97521.89;;;-0.42;69.22
77881;BME280;67077;50.298;18.996;2023-03-05T03:13:19;97524.20;;;-0.46;69.12
77881;BME280;67077;50.298;18.996;2023-03-05T03:15:46;97525.09;;;-0.47;69.34
77881;BME280;67077;50.298;18.996;2023-03-05T03:18:13;97520.11;;;-0.49;69.40
77881;BME280;67077;50.298;18.996;2023-03-05T03:20:41;97521.70;;;-0.50;69.69
77881;BME280;67077;50.298;18.996;2023-03-05T03:23:08;97523.70;;;-0.52;70.02
77881;BME280;67077;50.298;18.996;2023-03-05T03:25:35;97518.32;;;-0.53;70.42
77881;BME280;67077;50.298;18.996;2023-03-05T03:28:02;97514.90;;;-0.53;70.39
77881;BME280;67077;50.298;18.996;2023-03-05T03:30:29;97510.35;;;-0.49;70.44
77881;BME280;67077;50.298;18.996;2023-03-05T03:32:56;97511.34;;;-0.45;70.26
77881;BME280;67077;50.298;18.996;2023-03-05T03:35:23;97512.04;;;-0.41;70.31
77881;BME280;67077;50.298;18.996;2023-03-05T03:37:50;97510.81;;;-0.38;70.12
77881;BME280;67077;50.298;18.996;2023-03-05T03:40:18;97505.89;;;-0.35;70.19
77881;BME280;67077;50.298;18.996;2023-03-05T03:42:45;97504.23;;;-0.35;70.17
77881;BME280;67077;50.298;18.996;2023-03-05T03:45:14;97499.36;;;-0.35;70.21
77881;BME280;67077;50.298;18.996;2023-03-05T03:47:41;97506.59;;;-0.37;70.51
77881;BME280;67077;50.298;18.996;2023-03-05T03:50:09;97509.91;;;-0.38;70.50
77881;BME280;67077;50.298;18.996;2023-03-05T03:52:36;97504.83;;;-0.40;70.42
77881;BME280;67077;50.298;18.996;2023-03-05T03:55:03;97504.48;;;-0.43;70.55
77881;BME280;67077;50.298;18.996;2023-03-05T03:57:31;97503.61;;;-0.45;70.42
77881;BME280;67077;50.298;18.996;2023-03-05T04:00:00;97498.29;;;-0.47;70.42
77881;BME280;67077;50.298;18.996;2023-03-05T04:02:27;97497.39;;;-0.45;70.24
77881;BME280;67077;50.298;18.996;2023-03-05T04:04:55;97491.46;;;-0.41;70.07
77881;BME280;67077;50.298;18.996;2023-03-05T04:07:26;97492.28;;;-0.35;70.01
77881;BME280;67077;50.298;18.996;2023-03-05T04:09:55;97487.77;;;-0.32;69.84
77881;BME280;67077;50.298;18.996;2023-03-05T04:12:23;97487.40;;;-0.31;69.56
77881;BME280;67077;50.298;18.996;2023-03-05T04:14:50;97485.95;;;-0.31;69.71
77881;BME280;67077;50.298;18.996;2023-03-05T04:17:18;97489.09;;;-0.30;69.76
77881;BME280;67077;50.298;18.996;2023-03-05T04:19:46;97481.88;;;-0.31;69.58
77881;BME280;67077;50.298;18.996;2023-03-05T04:22:16;97476.31;;;-0.32;69.59
77881;BME280;67077;50.298;18.996;2023-03-05T04:24:44;97472.07;;;-0.35;69.11
77881;BME280;67077;50.298;18.996;2023-03-05T04:27:12;97466.52;;;-0.41;68.95
77881;BME280;67077;50.298;18.996;2023-03-05T04:29:39;97466.53;;;-0.44;68.86
77881;BME280;67077;50.298;18.996;2023-03-05T04:32:07;97461.45;;;-0.48;69.25
77881;BME280;67077;50.298;18.996;2023-03-05T04:34:36;97454.38;;;-0.51;69.42
77881;BME280;67077;50.298;18.996;2023-03-05T04:37:04;97452.36;;;-0.55;69.64
77881;BME280;67077;50.298;18.996;2023-03-05T04:39:32;97450.63;;;-0.56;69.68
77881;BME280;67077;50.298;18.996;2023-03-05T04:41:59;97445.59;;;-0.52;69.66
77881;BME280;67077;50.298;18.996;2023-03-05T04:44:26;97441.47;;;-0.50;69.49
77881;BME280;67077;50.298;18.996;2023-03-05T04:46:54;97442.33;;;-0.48;69.46
77881;BME280;67077;50.298;18.996;2023-03-05T04:49:22;97439.97;;;-0.49;69.41
77881;BME280;67077;50.298;18.996;2023-03-05T04:51:49;97444.30;;;-0.51;69.29
77881;BME280;67077;50.298;18.996;2023-03-05T04:54:16;97452.06;;;-0.54;69.08
77881;BME280;67077;50.298;18.996;2023-03-05T04:56:44;97460.23;;;-0.58;69.12
77881;BME280;67077;50.298;18.996;2023-03-05T04:59:11;97465.98;;;-0.63;68.88
77881;BME280;67077;50.298;18.996;2023-03-05T05:01:40;97463.08;;;-0.69;68.78
77881;BME280;67077;50.298;18.996;2023-03-05T05:04:08;97465.21;;;-0.73;68.77
77881;BME280;67077;50.298;18.996;2023-03-05T05:06:35;97465.77;;;-0.77;68.73
77881;BME280;67077;50.298;18.996;2023-03-05T05:09:02;97462.89;;;-0.81;68.53
77881;BME280;67077;50.298;18.996;2023-03-05T05:11:30;97464.25;;;-0.86;68.24
77881;BME280;67077;50.298;18.996;2023-03-05T05:13:57;97461.33;;;-0.86;68.02
77881;BME280;67077;50.298;18.996;2023-03-05T05:16:24;97466.23;;;-0.86;67.93
77881;BME280;67077;50.298;18.996;2023-03-05T05:18:52;97468.83;;;-0.87;67.77
77881;BME280;67077;50.298;18.996;2023-03-05T05:21:19;97470.85;;;-0.91;67.96
77881;BME280;67077;50.298;18.996;2023-03-05T05:23:46;97473.38;;;-0.95;68.12
77881;BME280;67077;50.298;18.996;2023-03-05T05:26:13;97470.98;;;-0.98;68.47
77881;BME280;67077;50.298;18.996;2023-03-05T05:28:42;97468.79;;;-1.00;68.65
77881;BME280;67077;50.298;18.996;2023-03-05T05:31:13;97466.52;;;-1.04;68.78
77881;BME280;67077;50.298;18.996;2023-03-05T05:33:41;97460.56;;;-1.08;69.09
77881;BME280;67077;50.298;18.996;2023-03-05T05:36:11;97463.85;;;-1.09;69.62
77881;BME280;67077;50.298;18.996;2023-03-05T05:38:39;97460.20;;;-1.09;69.76
77881;BME280;67077;50.298;18.996;2023-03-05T05:41:10;97457.67;;;-1.10;69.92
77881;BME280;67077;50.298;18.996;2023-03-05T05:43:38;97459.52;;;-1.08;70.11
77881;BME280;67077;50.298;18.996;2023-03-05T05:46:09;97461.95;;;-1.02;69.88
77881;BME280;67077;50.298;18.996;2023-03-05T05:48:37;97464.25;;;-0.97;69.88
77881;BME280;67077;50.298;18.996;2023-03-05T05:51:06;97465.28;;;-0.94;69.91
77881;BME280;67077;50.298;18.996;2023-03-05T05:53:34;97463.67;;;-0.92;70.06
77881;BME280;67077;50.298;18.996;2023-03-05T05:56:04;97456.21;;;-0.92;70.18
77881;BME280;67077;50.298;18.996;2023-03-05T05:58:31;97456.30;;;-0.93;70.15
77881;BME280;67077;50.298;18.996;2023-03-05T06:00:58;97456.10;;;-0.93;70.28
77881;BME280;67077;50.298;18.996;2023-03-05T06:03:26;97452.84;;;-0.94;70.39
77881;BME280;67077;50.298;18.996;2023-03-05T06:05:53;97452.09;;;-0.95;70.36
77881;BME280;67077;50.298;18.996;2023-03-05T06:08:24;97453.48;;;-0.96;70.46
77881;BME280;67077;50.298;18.996;2023-03-05T06:10:55;97451.98;;;-0.99;70.32
77881;BME280;67077;50.298;18.996;2023-03-05T06:13:23;97453.08;;;-0.99;70.23
77881;BME280;67077;50.298;18.996;2023-03-05T06:15:55;97452.98;;;-0.95;70.16
77881;BME280;67077;50.298;18.996;2023-03-05T06:18:24;97448.67;;;-0.90;70.15
77881;BME280;67077;50.298;18.996;2023-03-05T06:21:02;97450.89;;;-0.92;70.09
77881;BME280;67077;50.298;18.996;2023-03-05T06:23:31;97450.74;;;-0.92;70.34
77881;BME280;67077;50.298;18.996;2023-03-05T06:26:06;97442.66;;;-0.91;70.53
77881;BME280;67077;50.298;18.996;2023-03-05T06:28:36;97438.66;;;-0.89;70.55
77881;BME280;67077;50.298;18.996;2023-03-05T06:31:50;97437.19;;;-0.89;70.65
77881;BME280;67077;50.298;18.996;2023-03-05T06:34:18;97434.38;;;-0.89;71.03
77881;BME280;67077;50.298;18.996;2023-03-05T06:36:45;97432.98;;;-0.83;71.14
77881;BME280;67077;50.298;18.996;2023-03-05T06:39:12;97434.56;;;-0.74;71.26
77881;BME280;67077;50.298;18.996;2023-03-05T06:41:39;97429.05;;;-0.69;71.28
77881;BME280;67077;50.298;18.996;2023-03-05T06:44:08;97430.17;;;-0.68;71.30
77881;BME280;67077;50.298;18.996;2023-03-05T06:46:37;97433.20;;;-0.67;71.46
77881;BME280;67077;50.298;18.996;2023-03-05T06:49:09;97434.45;;;-0.66;71.50
77881;BME280;67077;50.298;18.996;2023-03-05T06:52:02;97435.86;;;-0.64;71.71
77881;BME280;67077;50.298;18.996;2023-03-05T06:54:43;97435.31;;;-0.65;71.94
77881;BME280;67077;50.298;18.996;2023-03-05T06:57:10;97432.77;;;-0.66;72.25
77881;BME280;67077;50.298;18.996;2023-03-05T06:59:54;97427.54;;;-0.60;72.36
77881;BME280;67077;50.298;18.996;2023-03-05T07:02:21;97423.52;;;-0.55;72.46
77881;BME280;67077;50.298;18.996;2023-03-05T07:04:49;97414.57;;;-0.56;72.54
77881;BME280;67077;50.298;18.996;2023-03-05T07:07:19;97414.73;;;-0.58;72.79
77881;BME280;67077;50.298;18.996;2023-03-05T07:09:46;97418.05;;;-0.59;72.97
77881;BME280;67077;50.298;18.996;2023-03-05T07:12:16;97419.09;;;-0.61;73.06
77881;BME280;67077;50.298;18.996;2023-03-05T07:14:44;97417.42;;;-0.60;73.34
77881;BME280;67077;50.298;18.996;2023-03-05T07:17:11;97412.60;;;-0.53;73.55
77881;BME280;67077;50.298;18.996;2023-03-05T07:19:40;97415.52;;;-0.47;73.46
77881;BME280;67077;50.298;18.996;2023-03-05T07:22:07;97409.09;;;-0.43;73.62
77881;BME280;67077;50.298;18.996;2023-03-05T07:24:34;97404.41;;;-0.41;73.66
77881;BME280;67077;50.298;18.996;2023-03-05T07:27:01;97407.01;;;-0.40;73.76
77881;BME280;67077;50.298;18.996;2023-03-05T07:29:28;97402.38;;;-0.37;73.81
77881;BME280;67077;50.298;18.996;2023-03-05T07:31:57;97389.02;;;-0.34;73.94
77881;BME280;67077;50.298;18.996;2023-03-05T07:34:26;97385.98;;;-0.30;73.82
77881;BME280;67077;50.298;18.996;2023-03-05T07:36:54;97389.44;;;-0.19;73.98
77881;BME280;67077;50.298;18.996;2023-03-05T07:39:23;97387.44;;;-0.08;73.83
77881;BME280;67077;50.298;18.996;2023-03-05T07:41:51;97389.20;;;0.04;73.66
77881;BME280;67077;50.298;18.996;2023-03-05T07:44:18;97383.59;;;0.11;73.33
77881;BME280;67077;50.298;18.996;2023-03-05T07:46:46;97388.56;;;0.14;73.35
77881;BME280;67077;50.298;18.996;2023-03-05T07:49:13;97384.31;;;0.19;73.30
77881;BME280;67077;50.298;18.996;2023-03-05T07:51:41;97383.35;;;0.24;73.36
77881;BME280;67077;50.298;18.996;2023-03-05T07:54:09;97383.54;;;0.23;72.79
77881;BME280;67077;50.298;18.996;2023-03-05T07:56:37;97382.35;;;0.21;72.60
77881;BME280;67077;50.298;18.996;2023-03-05T07:59:07;97379.31;;;0.24;72.63
77881;BME280;67077;50.298;18.996;2023-03-05T08:01:36;97379.08;;;0.24;72.62
77881;BME280;67077;50.298;18.996;2023-03-05T08:04:06;97372.30;;;0.29;72.37
77881;BME280;67077;50.298;18.996;2023-03-05T08:06:34;97372.13;;;0.34;72.50
77881;BME280;67077;50.298;18.996;2023-03-05T08:09:01;97369.10;;;0.36;72.18
77881;BME280;67077;50.298;18.996;2023-03-05T08:11:28;97368.20;;;0.36;72.01
77881;BME280;67077;50.298;18.996;2023-03-05T08:13:55;97364.96;;;0.38;72.10
77881;BME280;67077;50.298;18.996;2023-03-05T08:16:26;97363.88;;;0.43;72.33
77881;BME280;67077;50.298;18.996;2023-03-05T08:18:56;97364.45;;;0.47;72.60
77881;BME280;67077;50.298;18.996;2023-03-05T08:21:31;97363.56;;;0.53;72.29
77881;BME280;67077;50.298;18.996;2023-03-05T08:24:07;97360.02;;;0.56;72.55
77881;BME280;67077;50.298;18.996;2023-03-05T08:26:37;97366.60;;;0.56;72.42
77881;BME280;67077;50.298;18.996;2023-03-05T08:29:07;97362.59;;;0.60;72.31
77881;BME280;67077;50.298;18.996;2023-03-05T08:31:34;97360.20;;;0.68;72.67
77881;BME280;67077;50.298;18.996;2023-03-05T08:34:04;97358.92;;;0.77;72.38
77881;BME280;67077;50.298;18.996;2023-03-05T08:36:32;97357.63;;;0.82;72.18
77881;BME280;67077;50.298;18.996;2023-03-05T08:38:59;97354.62;;;0.88;71.93
77881;BME280;67077;50.298;18.996;2023-03-05T08:41:28;97354.74;;;0.90;72.04
77881;BME280;67077;50.298;18.996;2023-03-05T08:43:56;97350.47;;;0.87;71.83
77881;BME280;67077;50.298;18.996;2023-03-05T08:46:23;97342.73;;;0.84;71.73
77881;BME280;67077;50.298;18.996;2023-03-05T08:48:50;97342.59;;;0.79;71.61
77881;BME280;67077;50.298;18.996;2023-03-05T08:51:26;97338.09;;;0.81;72.12
77881;BME280;67077;50.298;18.996;2023-03-05T08:54:29;97332.52;;;0.86;71.80
77881;BME280;67077;50.298;18.996;2023-03-05T08:57:16;97336.09;;;0.89;71.98
77881;BME280;67077;50.298;18.996;2023-03-05T08:59:45;97336.75;;;0.89;72.04
77881;BME280;67077;50.298;18.996;2023-03-05T09:02:31;97329.48;;;0.96;72.02
77881;BME280;67077;50.298;18.996;2023-03-05T09:04:59;97328.34;;;1.02;71.91
77881;BME280;67077;50.298;18.996;2023-03-05T09:07:32;97330.29;;;1.07;71.92
77881;BME280;67077;50.298;18.996;2023-03-05T09:09:59;97330.54;;;1.17;71.88
77881;BME280;67077;50.298;18.996;2023-03-05T09:12:26;97327.83;;;1.31;71.59
77881;BME280;67077;50.298;18.996;2023-03-05T09:14:56;97324.38;;;1.38;71.69
77881;BME280;67077;50.298;18.996;2023-03-05T09:17:25;97325.82;;;1.46;71.46
77881;BME280;67077;50.298;18.996;2023-03-05T09:19:52;97327.55;;;1.59;71.60
77881;BME280;67077;50.298;18.996;2023-03-05T09:22:20;97327.96;;;1.66;71.54
77881;BME280;67077;50.298;18.996;2023-03-05T09:24:48;97327.33;;;1.71;72.03
77881;BME280;67077;50.298;18.996;2023-03-05T09:27:15;97324.61;;;1.79;71.83
77881;BME280;67077;50.298;18.996;2023-03-05T09:29:52;97323.66;;;1.79;71.69
77881;BME280;67077;50.298;18.996;2023-03-05T09:32:35;97325.54;;;1.83;72.22
77881;BME280;67077;50.298;18.996;2023-03-05T09:35:03;97328.52;;;1.84;72.08
77881;BME280;67077;50.298;18.996;2023-03-05T09:37:32;97324.79;;;1.77;72.64
77881;BME280;67077;50.298;18.996;2023-03-05T09:40:01;97327.64;;;1.70;72.77
77881;BME280;67077;50.298;18.996;2023-03-05T09:50:47;97331.67;;;1.36;73.92
77881;BME280;67077;50.298;18.996;2023-03-05T09:55:57;97332.08;;;1.16;74.67
77881;BME280;67077;50.298;18.996;2023-03-05T09:58:37;97342.52;;;1.02;74.93
77881;BME280;67077;50.298;18.996;2023-03-05T10:01:07;97339.61;;;0.91;75.56
77881;BME280;67077;50.298;18.996;2023-03-05T10:04:12;97339.80;;;0.86;75.21
77881;BME280;67077;50.298;18.996;2023-03-05T10:07:00;97338.67;;;0.86;75.45
77881;BME280;67077;50.298;18.996;2023-03-05T10:10:55;97336.04;;;0.77;75.69
77881;BME280;67077;50.298;18.996;2023-03-05T10:13:23;97333.42;;;0.66;75.70
77881;BME280;67077;50.298;18.996;2023-03-05T10:18:59;97327.16;;;0.60;75.64
77881;BME280;67077;50.298;18.996;2023-03-05T10:22:07;97321.79;;;0.63;75.84
77881;BME280;67077;50.298;18.996;2023-03-05T10:33:03;97311.07;;;0.77;75.91
77881;BME280;67077;50.298;18.996;2023-03-05T10:41:39;97296.16;;;1.18;74.51
77881;BME280;67077;50.298;18.996;2023-03-05T10:44:20;97292.46;;;1.24;74.08
77881;BME280;67077;50.298;18.996;2023-03-05T10:46:56;97285.79;;;1.27;73.73
77881;BME280;67077;50.298;18.996;2023-03-05T10:49:34;97284.64;;;1.24;72.82
77881;BME280;67077;50.298;18.996;2023-03-05T10:52:16;97281.02;;;1.23;73.20
77881;BME280;67077;50.298;18.996;2023-03-05T10:54:44;97279.52;;;1.27;73.80
77881;BME280;67077;50.298;18.996;2023-03-05T11:02:17;97273.76;;;1.31;73.03
77881;BME280;67077;50.298;18.996;2023-03-05T11:04:46;97273.73;;;1.26;72.90
77881;BME280;67077;50.298;18.996;2023-03-05T11:09:41;97268.73;;;1.17;73.08
77881;BME280;67077;50.298;18.996;2023-03-05T11:12:20;97266.59;;;1.20;73.44
77881;BME280;67077;50.298;18.996;2023-03-05T11:18:06;97263.21;;;1.30;72.52
77881;BME280;67077;50.298;18.996;2023-03-05T11:20:40;97256.11;;;1.31;72.52
77881;BME280;67077;50.298;18.996;2023-03-05T11:23:21;97253.19;;;1.30;72.24
77881;BME280;67077;50.298;18.996;2023-03-05T11:29:01;97252.73;;;1.30;71.88
77881;BME280;67077;50.298;18.996;2023-03-05T11:31:34;97251.59;;;1.38;70.86
77881;BME280;67077;50.298;18.996;2023-03-05T11:34:10;97244.48;;;1.44;70.97
77881;BME280;67077;50.298;18.996;2023-03-05T11:39:17;97238.23;;;1.60;68.96
77881;BME280;67077;50.298;18.996;2023-03-05T11:42:03;97236.17;;;1.65;69.24
77881;BME280;67077;50.298;18.996;2023-03-05T11:44:47;97229.81;;;1.77;68.81
77881;BME280;67077;50.298;18.996;2023-03-05T11:49:50;97232.13;;;1.90;65.57
77881;BME280;67077;50.298;18.996;2023-03-05T11:52:29;97230.27;;;1.94;66.00
77881;BME280;67077;50.298;18.996;2023-03-05T11:57:38;97226.20;;;1.92;63.48
77881;BME280;67077;50.298;18.996;2023-03-05T12:00:14;97223.16;;;1.87;63.78
77881;BME280;67077;50.298;18.996;2023-03-05T12:02:41;97225.94;;;1.81;62.61
77881;BME280;67077;50.298;18.996;2023-03-05T12:05:14;97221.25;;;1.73;62.70
77881;BME280;67077;50.298;18.996;2023-03-05T12:07:46;97229.75;;;1.57;61.77
77881;BME280;67077;50.298;18.996;2023-03-05T12:10:21;97223.06;;;1.37;61.53
77881;BME280;67077;50.298;18.996;2023-03-05T12:13:19;97221.89;;;1.22;62.33
77881;BME280;67077;50.298;18.996;2023-03-05T12:24:00;97212.16;;;0.90;59.24
77881;BME280;67077;50.298;18.996;2023-03-05T12:31:59;97195.84;;;1.23;60.10
77881;BME280;67077;50.298;18.996;2023-03-05T12:52:56;97196.52;;;2.20;58.24
77881;BME280;67077;50.298;18.996;2023-03-05T12:55:38;97198.45;;;2.16;57.46
77881;BME280;67077;50.298;18.996;2023-03-05T12:58:20;97191.98;;;2.03;56.48
77881;BME280;67077;50.298;18.996;2023-03-05T13:01:35;97188.16;;;1.93;56.60
77881;BME280;67077;50.298;18.996;2023-03-05T13:09:56;97186.02;;;1.66;56.01
77881;BME280;67077;50.298;18.996;2023-03-05T13:12:26;97180.33;;;1.59;55.25
77881;BME280;67077;50.298;18.996;2023-03-05T13:15:07;97179.13;;;1.53;56.40
77881;BME280;67077;50.298;18.996;2023-03-05T13:17:49;97183.23;;;1.51;56.97
77881;BME280;67077;50.298;18.996;2023-03-05T13:20:33;97183.20;;;1.48;56.83
77881;BME280;67077;50.298;18.996;2023-03-05T13:23:22;97188.47;;;1.40;57.54
77881;BME280;67077;50.298;18.996;2023-03-05T13:26:13;97193.18;;;1.24;58.57
77881;BME280;67077;50.298;18.996;2023-03-05T13:28:41;97193.04;;;1.11;60.03
77881;BME280;67077;50.298;18.996;2023-03-05T13:31:14;97197.41;;;1.04;61.05
77881;BME280;67077;50.298;18.996;2023-03-05T13:33:51;97194.14;;;1.00;61.75
77881;BME280;67077;50.298;18.996;2023-03-05T13:36:21;97198.16;;;1.02;62.53
77881;BME280;67077;50.298;18.996;2023-03-05T13:38:50;97196.98;;;1.01;63.13
77881;BME280;67077;50.298;18.996;2023-03-05T13:41:25;97195.88;;;0.99;63.38
77881;BME280;67077;50.298;18.996;2023-03-05T13:49:15;97187.34;;;1.03;63.64
77881;BME280;67077;50.298;18.996;2023-03-05T13:51:46;97179.69;;;1.08;63.95
77881;BME280;67077;50.298;18.996;2023-03-05T13:54:15;97178.70;;;1.16;63.94
77881;BME280;67077;50.298;18.996;2023-03-05T13:57:04;97170.14;;;1.24;63.88
77881;BME280;67077;50.298;18.996;2023-03-05T13:59:35;97169.70;;;1.31;63.62
77881;BME280;67077;50.298;18.996;2023-03-05T14:02:18;97167.23;;;1.35;64.08
77881;BME280;67077;50.298;18.996;2023-03-05T14:04:46;97165.16;;;1.40;64.00
77881;BME280;67077;50.298;18.996;2023-03-05T14:07:23;97156.80;;;1.42;63.59
77881;BME280;67077;50.298;18.996;2023-03-05T14:09:52;97160.66;;;1.44;63.25
77881;BME280;67077;50.298;18.996;2023-03-05T14:12:27;97155.96;;;1.45;62.37
77881;BME280;67077;50.298;18.996;2023-03-05T14:14:57;97148.44;;;1.42;62.34
77881;BME280;67077;50.298;18.996;2023-03-05T14:17:37;97142.11;;;1.39;62.50
77881;BME280;67077;50.298;18.996;2023-03-05T14:22:41;97142.02;;;1.29;62.18
77881;BME280;67077;50.298;18.996;2023-03-05T14:25:32;97141.32;;;1.25;62.06
77881;BME280;67077;50.298;18.996;2023-03-05T14:28:06;97139.06;;;1.17;62.29
77881;BME280;67077;50.298;18.996;2023-03-05T14:30:33;97140.96;;;1.08;62.94
77881;BME280;67077;50.298;18.996;2023-03-05T14:33:02;97136.33;;;1.03;63.75
77881;BME280;67077;50.298;18.996;2023-03-05T14:35:29;97131.05;;;0.97;64.49
77881;BME280;67077;50.298;18.996;2023-03-05T14:37:57;97129.99;;;0.95;64.34
77881;BME280;67077;50.298;18.996;2023-03-05T14:40:31;97132.61;;;0.97;64.89
77881;BME280;67077;50.298;18.996;2023-03-05T14:43:03;97132.88;;;0.99;65.18
77881;BME280;67077;50.298;18.996;2023-03-05T14:45:37;97133.08;;;0.99;65.40
77881;BME280;67077;50.298;18.996;2023-03-05T14:48:06;97128.16;;;0.98;65.56
77881;BME280;67077;50.298;18.996;2023-03-05T14:50:52;97123.77;;;0.98;65.52
77881;BME280;67077;50.298;18.996;2023-03-05T14:53:24;97123.56;;;0.97;65.32
77881;BME280;67077;50.298;18.996;2023-03-05T14:55:54;97119.14;;;0.97;65.53